sensor_id;sensor_type;location;lat;lon;timestamp;pressure;altitude;pressure_sealevel;temperature;humidity
23172;BME280;11754;42.664;23.594;2023-07-09T00:02:27;95791.38;;;18.13;74.14
23172;BME280;11754;42.664;23.594;2023-07-09T00:04:55;95773.94;;;17.97;74.21
23172;BME280;11754;42.664;23.594;2023-07-09T00:07:29;95796.28;;;18.02;74.64
23172;BME280;11754;42.664;23.594;2023-07-09T00:09:56;95799.00;;;17.96;74.85
23172;BME280;11754;42.664;23.594;2023-07-09T00:12:21;95791.56;;;17.91;75.76
23172;BME280;11754;42.664;23.594;2023-07-09T00:14:47;95788.91;;;17.91;75.53
23172;BME280;11754;42.664;23.594;2023-07-09T00:17:39;95795.69;;;17.87;75.96
23172;BME280;11754;42.664;23.594;2023-07-09T00:20:14;95781.72;;;17.79;76.52
23172;BME280;11754;42.664;23.594;2023-07-09T00:22:40;95785.22;;;17.79;77.02
23172;BME280;11754;42.664;23.594;2023-07-09T00:25:07;95782.50;;;17.72;76.94
23172;BME280;11754;42.664;23.594;2023-07-09T00:27:32;95777.56;;;17.69;76.88
23172;BME280;11754;42.664;23.594;2023-07-09T00:29:58;95776.53;;;17.64;77.41
23172;BME280;11754;42.664;23.594;2023-07-09T00:32:24;95783.13;;;17.68;76.65
23172;BME280;11754;42.664;23.594;2023-07-09T00:34:51;95779.22;;;17.64;76.26
23172;BME280;11754;42.664;23.594;2023-07-09T00:37:20;95773.25;;;17.62;76.20
23172;BME280;11754;42.664;23.594;2023-07-09T00:39:55;95783.72;;;17.57;76.13
23172;BME280;11754;42.664;23.594;2023-07-09T00:42:21;95784.31;;;17.59;76.24
23172;BME280;11754;42.664;23.594;2023-07-09T00:44:52;95786.56;;;17.55;76.66
23172;BME280;11754;42.664;23.594;2023-07-09T00:50:10;95784.50;;;17.50;77.10
23172;BME280;11754;42.664;23.594;2023-07-09T00:52:41;95776.28;;;17.45;76.84
23172;BME280;11754;42.664;23.594;2023-07-09T00:55:12;95781.59;;;17.45;76.81
23172;BME280;11754;42.664;23.594;2023-07-09T00:57:42;95778.53;;;17.35;77.09
23172;BME280;11754;42.664;23.594;2023-07-09T01:00:11;95784.28;;;17.39;77.45
23172;BME280;11754;42.664;23.594;2023-07-09T01:02:43;95782.38;;;17.26;77.97
23172;BME280;11754;42.664;23.594;2023-07-09T01:05:11;95788.13;;;17.23;78.86
23172;BME280;11754;42.664;23.594;2023-07-09T01:07:38;95778.66;;;17.14;79.29
23172;BME280;11754;42.664;23.594;2023-07-09T01:10:04;95787.25;;;17.16;79.33
23172;BME280;11754;42.664;23.594;2023-07-09T01:12:32;95789.31;;;17.14;79.56
23172;BME280;11754;42.664;23.594;2023-07-09T01:14:58;95779.44;;;17.08;79.64
23172;BME280;11754;42.664;23.594;2023-07-09T01:17:26;95786.63;;;17.07;79.76
23172;BME280;11754;42.664;23.594;2023-07-09T01:19:53;95788.88;;;17.03;79.86
23172;BME280;11754;42.664;23.594;2023-07-09T01:22:20;95785.19;;;17.04;79.55
23172;BME280;11754;42.664;23.594;2023-07-09T01:24:54;95787.25;;;17.02;79.32
23172;BME280;11754;42.664;23.594;2023-07-09T01:27:26;95785.56;;;17.01;78.61
23172;BME280;11754;42.664;23.594;2023-07-09T01:29:54;95766.47;;;16.85;78.79
23172;BME280;11754;42.664;23.594;2023-07-09T01:32:21;95765.31;;;16.72;78.33
23172;BME280;11754;42.664;23.594;2023-07-09T01:34:49;95777.22;;;16.70;78.28
23172;BME280;11754;42.664;23.594;2023-07-09T01:37:18;95774.00;;;16.46;78.69
23172;BME280;11754;42.664;23.594;2023-07-09T01:39:47;95767.16;;;16.37;79.85
23172;BME280;11754;42.664;23.594;2023-07-09T01:42:13;95782.13;;;16.38;80.14
23172;BME280;11754;42.664;23.594;2023-07-09T01:44:38;95781.06;;;16.32;80.72
23172;BME280;11754;42.664;23.594;2023-07-09T01:47:05;95767.88;;;16.18;80.89
23172;BME280;11754;42.664;23.594;2023-07-09T01:49:31;95783.66;;;16.26;81.10
23172;BME280;11754;42.664;23.594;2023-07-09T01:52:01;95777.34;;;16.27;81.45
23172;BME280;11754;42.664;23.594;2023-07-09T01:54:29;95781.81;;;16.20;82.14
23172;BME280;11754;42.664;23.594;2023-07-09T01:59:50;95784.59;;;16.12;83.38
23172;BME280;11754;42.664;23.594;2023-07-09T02:02:18;95797.28;;;16.09;83.63
23172;BME280;11754;42.664;23.594;2023-07-09T02:04:53;95787.41;;;16.03;83.85
23172;BME280;11754;42.664;23.594;2023-07-09T02:07:23;95797.44;;;16.01;83.95
23172;BME280;11754;42.664;23.594;2023-07-09T02:09:49;95778.69;;;15.88;84.34
23172;BME280;11754;42.664;23.594;2023-07-09T02:12:15;95801.66;;;15.96;84.33
23172;BME280;11754;42.664;23.594;2023-07-09T02:14:42;95800.84;;;15.95;84.60
23172;BME280;11754;42.664;23.594;2023-07-09T02:17:09;95796.56;;;15.94;84.87
23172;BME280;11754;42.664;23.594;2023-07-09T02:19:34;95780.47;;;15.81;84.80
23172;BME280;11754;42.664;23.594;2023-07-09T02:22:00;95796.47;;;15.88;85.09
23172;BME280;11754;42.664;23.594;2023-07-09T02:24:25;95799.31;;;15.86;85.00
23172;BME280;11754;42.664;23.594;2023-07-09T02:26:59;95791.09;;;15.81;85.13
23172;BME280;11754;42.664;23.594;2023-07-09T02:29:26;95780.97;;;15.70;85.01
23172;BME280;11754;42.664;23.594;2023-07-09T02:31:52;95810.97;;;15.85;85.62
23172;BME280;11754;42.664;23.594;2023-07-09T02:34:19;95809.34;;;15.84;85.69
23172;BME280;11754;42.664;23.594;2023-07-09T02:36:45;95814.66;;;15.84;85.43
23172;BME280;11754;42.664;23.594;2023-07-09T02:39:11;95792.63;;;15.69;85.59
23172;BME280;11754;42.664;23.594;2023-07-09T02:41:55;95815.41;;;15.78;85.72
23172;BME280;11754;42.664;23.594;2023-07-09T02:44:20;95827.06;;;15.77;85.92
23172;BME280;11754;42.664;23.594;2023-07-09T02:46:46;95824.41;;;15.77;85.65
23172;BME280;11754;42.664;23.594;2023-07-09T02:49:13;95821.09;;;15.75;85.46
23172;BME280;11754;42.664;23.594;2023-07-09T02:51:41;95826.44;;;15.75;85.23
23172;BME280;11754;42.664;23.594;2023-07-09T02:54:06;95807.69;;;15.61;85.24
23172;BME280;11754;42.664;23.594;2023-07-09T02:56:32;95826.44;;;15.75;85.46
23172;BME280;11754;42.664;23.594;2023-07-09T02:58:58;95830.94;;;15.74;85.35
23172;BME280;11754;42.664;23.594;2023-07-09T03:01:24;95809.03;;;15.57;85.43
23172;BME280;11754;42.664;23.594;2023-07-09T03:03:56;95829.22;;;15.67;85.59
23172;BME280;11754;42.664;23.594;2023-07-09T03:06:23;95821.47;;;15.72;85.67
23172;BME280;11754;42.664;23.594;2023-07-09T03:08:49;95828.84;;;15.70;85.43
23172;BME280;11754;42.664;23.594;2023-07-09T03:11:16;95841.50;;;15.68;85.53
23172;BME280;11754;42.664;23.594;2023-07-09T03:13:42;95837.84;;;15.69;85.42
23172;BME280;11754;42.664;23.594;2023-07-09T03:16:07;95838.94;;;15.59;85.35
23172;BME280;11754;42.664;23.594;2023-07-09T03:18:33;95836.50;;;15.65;85.14
23172;BME280;11754;42.664;23.594;2023-07-09T03:20:59;95826.38;;;15.53;85.33
23172;BME280;11754;42.664;23.594;2023-07-09T03:23:24;95821.63;;;15.49;85.64
23172;BME280;11754;42.664;23.594;2023-07-09T03:25:50;95846.34;;;15.64;85.50
23172;BME280;11754;42.664;23.594;2023-07-09T03:28:15;95841.84;;;15.65;85.16
23172;BME280;11754;42.664;23.594;2023-07-09T03:30:42;95820.53;;;15.58;85.58
23172;BME280;11754;42.664;23.594;2023-07-09T03:33:09;95821.41;;;15.65;85.57
23172;BME280;11754;42.664;23.594;2023-07-09T03:35:34;95843.03;;;15.77;85.43
23172;BME280;11754;42.664;23.594;2023-07-09T03:38:01;95840.38;;;15.77;85.58
23172;BME280;11754;42.664;23.594;2023-07-09T03:40:30;95844.91;;;15.83;85.39
23172;BME280;11754;42.664;23.594;2023-07-09T03:42:55;95830.78;;;15.82;85.26
23172;BME280;11754;42.664;23.594;2023-07-09T03:45:21;95838.84;;;15.89;85.01
23172;BME280;11754;42.664;23.594;2023-07-09T03:47:50;95846.44;;;15.92;84.75
23172;BME280;11754;42.664;23.594;2023-07-09T03:50:15;95845.25;;;15.95;84.53
23172;BME280;11754;42.664;23.594;2023-07-09T03:52:40;95845.69;;;15.98;84.34
23172;BME280;11754;42.664;23.594;2023-07-09T03:55:07;95848.97;;;16.00;84.24
23172;BME280;11754;42.664;23.594;2023-07-09T03:57:33;95845.31;;;16.01;83.66
23172;BME280;11754;42.664;23.594;2023-07-09T04:00:04;95847.56;;;16.04;83.18
23172;BME280;11754;42.664;23.594;2023-07-09T04:02:30;95836.09;;;16.04;83.09
23172;BME280;11754;42.664;23.594;2023-07-09T04:04:55;95859.59;;;16.22;82.52
23172;BME280;11754;42.664;23.594;2023-07-09T04:07:21;95864.53;;;16.25;82.40
23172;BME280;11754;42.664;23.594;2023-07-09T04:09:46;95858.41;;;16.24;82.30
23172;BME280;11754;42.664;23.594;2023-07-09T04:12:11;95865.03;;;16.35;82.24
23172;BME280;11754;42.664;23.594;2023-07-09T04:14:36;95857.66;;;16.37;82.09
23172;BME280;11754;42.664;23.594;2023-07-09T04:17:02;95865.53;;;16.45;82.11
23172;BME280;11754;42.664;23.594;2023-07-09T04:19:28;95846.91;;;16.45;81.99
23172;BME280;11754;42.664;23.594;2023-07-09T04:21:53;95868.31;;;16.65;81.63
23172;BME280;11754;42.664;23.594;2023-07-09T04:24:19;95870.31;;;16.78;81.03
23172;BME280;11754;42.664;23.594;2023-07-09T04:26:45;95875.75;;;16.98;79.81
23172;BME280;11754;42.664;23.594;2023-07-09T04:29:11;95873.53;;;17.08;78.69
23172;BME280;11754;42.664;23.594;2023-07-09T04:31:36;95870.97;;;17.21;78.16
23172;BME280;11754;42.664;23.594;2023-07-09T04:34:03;95881.31;;;17.44;78.06
23172;BME280;11754;42.664;23.594;2023-07-09T04:36:28;95859.19;;;17.50;75.97
23172;BME280;11754;42.664;23.594;2023-07-09T04:38:54;95881.69;;;17.83;75.14
23172;BME280;11754;42.664;23.594;2023-07-09T04:41:19;95880.28;;;18.07;75.06
23172;BME280;11754;42.664;23.594;2023-07-09T04:43:44;95870.03;;;18.23;74.73
23172;BME280;11754;42.664;23.594;2023-07-09T04:46:10;95876.19;;;18.64;74.21
23172;BME280;11754;42.664;23.594;2023-07-09T04:48:35;95879.06;;;18.95;73.56
23172;BME280;11754;42.664;23.594;2023-07-09T04:51:00;95887.63;;;19.31;71.71
23172;BME280;11754;42.664;23.594;2023-07-09T04:55:49;95878.72;;;19.95;69.30
23172;BME280;11754;42.664;23.594;2023-07-09T04:58:15;95870.91;;;20.25;67.39
23172;BME280;11754;42.664;23.594;2023-07-09T05:00:41;95879.38;;;20.54;65.45
23172;BME280;11754;42.664;23.594;2023-07-09T05:03:07;95871.19;;;20.74;64.85
23172;BME280;11754;42.664;23.594;2023-07-09T05:05:33;95873.50;;;20.88;62.89
23172;BME280;11754;42.664;23.594;2023-07-09T05:07:58;95870.84;;;21.07;62.01
23172;BME280;11754;42.664;23.594;2023-07-09T05:10:23;95875.97;;;21.27;61.12
23172;BME280;11754;42.664;23.594;2023-07-09T05:12:54;95878.25;;;21.48;60.77
23172;BME280;11754;42.664;23.594;2023-07-09T05:15:21;95879.03;;;21.67;59.99
23172;BME280;11754;42.664;23.594;2023-07-09T05:17:47;95873.56;;;21.44;58.60
23172;BME280;11754;42.664;23.594;2023-07-09T05:20:14;95879.81;;;21.38;59.47
23172;BME280;11754;42.664;23.594;2023-07-09T05:22:39;95880.22;;;21.16;58.86
23172;BME280;11754;42.664;23.594;2023-07-09T05:25:05;95870.47;;;21.03;60.05
23172;BME280;11754;42.664;23.594;2023-07-09T05:27:30;95873.06;;;20.92;61.49
23172;BME280;11754;42.664;23.594;2023-07-09T05:29:55;95868.38;;;21.05;61.81
23172;BME280;11754;42.664;23.594;2023-07-09T05:32:21;95878.72;;;21.02;61.46
23172;BME280;11754;42.664;23.594;2023-07-09T05:34:46;95890.31;;;20.77;61.37
23172;BME280;11754;42.664;23.594;2023-07-09T05:37:11;95880.38;;;20.28;62.08
23172;BME280;11754;42.664;23.594;2023-07-09T05:39:37;95874.63;;;19.92;62.76
23172;BME280;11754;42.664;23.594;2023-07-09T05:42:02;95877.13;;;19.87;64.16
23172;BME280;11754;42.664;23.594;2023-07-09T05:44:27;95876.59;;;20.04;64.22
23172;BME280;11754;42.664;23.594;2023-07-09T05:46:53;95878.50;;;20.28;63.87
23172;BME280;11754;42.664;23.594;2023-07-09T05:49:18;95877.19;;;20.12;62.42
23172;BME280;11754;42.664;23.594;2023-07-09T05:51:43;95883.25;;;19.95;64.19
23172;BME280;11754;42.664;23.594;2023-07-09T05:54:09;95870.81;;;20.07;64.20
23172;BME280;11754;42.664;23.594;2023-07-09T05:56:34;95879.13;;;20.30;63.99
23172;BME280;11754;42.664;23.594;2023-07-09T05:59:00;95883.78;;;20.42;64.06
23172;BME280;11754;42.664;23.594;2023-07-09T06:01:25;95881.25;;;20.47;64.05
23172;BME280;11754;42.664;23.594;2023-07-09T06:03:52;95867.59;;;20.55;64.43
23172;BME280;11754;42.664;23.594;2023-07-09T06:06:18;95869.09;;;20.51;63.59
23172;BME280;11754;42.664;23.594;2023-07-09T06:08:44;95870.13;;;20.50;63.88
23172;BME280;11754;42.664;23.594;2023-07-09T06:11:09;95862.72;;;20.45;63.62
23172;BME280;11754;42.664;23.594;2023-07-09T06:13:35;95868.03;;;20.52;64.56
23172;BME280;11754;42.664;23.594;2023-07-09T06:16:01;95864.78;;;20.50;64.81
23172;BME280;11754;42.664;23.594;2023-07-09T06:18:27;95863.91;;;20.56;65.59
23172;BME280;11754;42.664;23.594;2023-07-09T06:20:57;95865.25;;;20.65;65.79
23172;BME280;11754;42.664;23.594;2023-07-09T06:23:23;95858.84;;;20.66;64.60
23172;BME280;11754;42.664;23.594;2023-07-09T06:25:49;95866.50;;;20.87;64.93
23172;BME280;11754;42.664;23.594;2023-07-09T06:28:17;95865.09;;;21.03;65.34
23172;BME280;11754;42.664;23.594;2023-07-09T06:30:43;95869.78;;;21.08;65.37
23172;BME280;11754;42.664;23.594;2023-07-09T06:33:10;95864.88;;;21.05;64.28
23172;BME280;11754;42.664;23.594;2023-07-09T06:35:37;95866.81;;;21.16;63.63
23172;BME280;11754;42.664;23.594;2023-07-09T06:38:02;95870.03;;;21.25;63.40
23172;BME280;11754;42.664;23.594;2023-07-09T06:40:28;95858.97;;;21.40;63.28
23172;BME280;11754;42.664;23.594;2023-07-09T06:42:53;95865.56;;;21.55;62.81
23172;BME280;11754;42.664;23.594;2023-07-09T06:45:19;95861.19;;;21.61;62.15
23172;BME280;11754;42.664;23.594;2023-07-09T06:47:44;95855.38;;;21.64;61.82
23172;BME280;11754;42.664;23.594;2023-07-09T06:50:09;95857.72;;;21.72;62.78
23172;BME280;11754;42.664;23.594;2023-07-09T06:52:35;95864.56;;;21.87;61.62
23172;BME280;11754;42.664;23.594;2023-07-09T06:55:00;95861.22;;;22.03;61.64
23172;BME280;11754;42.664;23.594;2023-07-09T06:57:25;95846.56;;;22.17;61.11
23172;BME280;11754;42.664;23.594;2023-07-09T06:59:51;95860.28;;;22.27;60.27
23172;BME280;11754;42.664;23.594;2023-07-09T07:02:16;95845.69;;;22.35;59.83
23172;BME280;11754;42.664;23.594;2023-07-09T07:04:41;95848.09;;;22.25;59.79
23172;BME280;11754;42.664;23.594;2023-07-09T07:07:07;95844.41;;;22.38;60.21
23172;BME280;11754;42.664;23.594;2023-07-09T07:09:32;95848.63;;;22.57;60.41
23172;BME280;11754;42.664;23.594;2023-07-09T07:11:57;95847.59;;;22.70;58.91
23172;BME280;11754;42.664;23.594;2023-07-09T07:14:23;95841.63;;;22.44;59.21
23172;BME280;11754;42.664;23.594;2023-07-09T07:16:48;95841.97;;;22.48;57.94
23172;BME280;11754;42.664;23.594;2023-07-09T07:19:14;95838.81;;;22.51;58.01
23172;BME280;11754;42.664;23.594;2023-07-09T07:25:00;95833.22;;;22.64;55.40
23172;BME280;11754;42.664;23.594;2023-07-09T07:27:26;95833.44;;;22.86;54.35
23172;BME280;11754;42.664;23.594;2023-07-09T07:29:51;95827.59;;;22.89;52.00
23172;BME280;11754;42.664;23.594;2023-07-09T07:32:17;95842.38;;;22.98;49.15
23172;BME280;11754;42.664;23.594;2023-07-09T07:34:42;95825.72;;;22.90;50.37
23172;BME280;11754;42.664;23.594;2023-07-09T07:37:08;95820.84;;;22.87;49.90
23172;BME280;11754;42.664;23.594;2023-07-09T07:39:33;95818.72;;;22.89;48.83
23172;BME280;11754;42.664;23.594;2023-07-09T07:41:58;95815.69;;;22.97;46.50
23172;BME280;11754;42.664;23.594;2023-07-09T07:44:24;95808.41;;;22.86;45.73
23172;BME280;11754;42.664;23.594;2023-07-09T07:46:49;95807.41;;;22.98;47.39
23172;BME280;11754;42.664;23.594;2023-07-09T07:49:15;95817.75;;;23.18;46.20
23172;BME280;11754;42.664;23.594;2023-07-09T07:51:40;95819.44;;;22.96;45.76
23172;BME280;11754;42.664;23.594;2023-07-09T07:54:06;95816.38;;;23.04;45.62
23172;BME280;11754;42.664;23.594;2023-07-09T07:56:36;95824.44;;;23.27;47.42
23172;BME280;11754;42.664;23.594;2023-07-09T07:59:01;95817.75;;;23.18;46.95
23172;BME280;11754;42.664;23.594;2023-07-09T08:01:27;95824.50;;;23.33;48.12
23172;BME280;11754;42.664;23.594;2023-07-09T08:03:53;95828.63;;;23.35;48.33
23172;BME280;11754;42.664;23.594;2023-07-09T08:06:18;95820.78;;;23.34;47.82
23172;BME280;11754;42.664;23.594;2023-07-09T08:08:43;95823.31;;;23.52;48.04
23172;BME280;11754;42.664;23.594;2023-07-09T08:11:09;95813.34;;;23.53;48.08
23172;BME280;11754;42.664;23.594;2023-07-09T08:13:35;95817.47;;;23.43;47.13
23172;BME280;11754;42.664;23.594;2023-07-09T08:16:01;95803.75;;;23.57;46.95
23172;BME280;11754;42.664;23.594;2023-07-09T08:18:27;95802.47;;;23.88;46.99
23172;BME280;11754;42.664;23.594;2023-07-09T08:20:52;95809.38;;;23.84;46.28
23172;BME280;11754;42.664;23.594;2023-07-09T08:23:17;95794.63;;;23.86;47.78
23172;BME280;11754;42.664;23.594;2023-07-09T08:25:43;95798.91;;;23.99;47.94
23172;BME280;11754;42.664;23.594;2023-07-09T08:28:08;95789.38;;;24.25;47.98
23172;BME280;11754;42.664;23.594;2023-07-09T08:30:34;95782.84;;;24.55;47.05
23172;BME280;11754;42.664;23.594;2023-07-09T08:33:01;95779.56;;;24.69;47.35
23172;BME280;11754;42.664;23.594;2023-07-09T08:35:26;95790.00;;;24.83;45.68
23172;BME280;11754;42.664;23.594;2023-07-09T08:37:51;95803.66;;;24.59;46.56
23172;BME280;11754;42.664;23.594;2023-07-09T08:40:17;95796.31;;;24.72;47.96
23172;BME280;11754;42.664;23.594;2023-07-09T08:42:45;95793.41;;;24.95;46.91
23172;BME280;11754;42.664;23.594;2023-07-09T08:45:19;95797.84;;;24.84;45.78
23172;BME280;11754;42.664;23.594;2023-07-09T08:47:56;95789.78;;;25.06;45.67
23172;BME280;11754;42.664;23.594;2023-07-09T08:50:35;95799.75;;;25.23;44.69
23172;BME280;11754;42.664;23.594;2023-07-09T08:53:01;95797.00;;;25.17;46.02
23172;BME280;11754;42.664;23.594;2023-07-09T08:55:51;95793.84;;;24.87;44.88
23172;BME280;11754;42.664;23.594;2023-07-09T08:58:25;95784.94;;;24.69;46.10
23172;BME280;11754;42.664;23.594;2023-07-09T09:06:01;95786.66;;;25.58;46.35
23172;BME280;11754;42.664;23.594;2023-07-09T09:11:12;95780.09;;;25.27;45.58
23172;BME280;11754;42.664;23.594;2023-07-09T09:13:39;95787.56;;;25.42;45.70
23172;BME280;11754;42.664;23.594;2023-07-09T09:16:13;95784.44;;;25.50;45.74
23172;BME280;11754;42.664;23.594;2023-07-09T09:18:44;95773.63;;;25.77;45.36
23172;BME280;11754;42.664;23.594;2023-07-09T09:21:18;95798.97;;;25.93;45.71
23172;BME280;11754;42.664;23.594;2023-07-09T09:27:23;95773.41;;;26.38;43.69
23172;BME280;11754;42.664;23.594;2023-07-09T09:29:48;95770.66;;;26.33;43.92
23172;BME280;11754;42.664;23.594;2023-07-09T09:34:42;95759.94;;;26.80;44.57
23172;BME280;11754;42.664;23.594;2023-07-09T09:37:10;95782.50;;;27.01;42.43
23172;BME280;11754;42.664;23.594;2023-07-09T09:39:37;95767.31;;;26.53;43.34
23172;BME280;11754;42.664;23.594;2023-07-09T09:42:10;95772.09;;;26.46;41.76
23172;BME280;11754;42.664;23.594;2023-07-09T09:44:39;95764.00;;;26.46;43.97
23172;BME280;11754;42.664;23.594;2023-07-09T09:47:09;95772.78;;;27.05;42.95
23172;BME280;11754;42.664;23.594;2023-07-09T09:49:40;95773.97;;;27.25;41.85
23172;BME280;11754;42.664;23.594;2023-07-09T09:52:11;95760.59;;;27.08;41.94
23172;BME280;11754;42.664;23.594;2023-07-09T09:54:40;95766.78;;;26.98;41.50
23172;BME280;11754;42.664;23.594;2023-07-09T09:57:16;95753.78;;;27.00;42.83
23172;BME280;11754;42.664;23.594;2023-07-09T09:59:42;95766.44;;;27.32;41.03
23172;BME280;11754;42.664;23.594;2023-07-09T10:02:40;95763.91;;;27.88;41.01
23172;BME280;11754;42.664;23.594;2023-07-09T10:05:12;95753.63;;;28.36;41.43
23172;BME280;11754;42.664;23.594;2023-07-09T10:08:01;95754.75;;;28.40;41.14
23172;BME280;11754;42.664;23.594;2023-07-09T10:10:30;95762.28;;;28.74;39.93
23172;BME280;11754;42.664;23.594;2023-07-09T10:13:20;95761.44;;;28.99;39.72
23172;BME280;11754;42.664;23.594;2023-07-09T10:18:43;95743.28;;;28.84;37.54
23172;BME280;11754;42.664;23.594;2023-07-09T10:21:34;95752.94;;;29.31;38.51
23172;BME280;11754;42.664;23.594;2023-07-09T10:26:59;95737.09;;;29.49;38.53
23172;BME280;11754;42.664;23.594;2023-07-09T10:32:52;95730.91;;;29.87;34.45
23172;BME280;11754;42.664;23.594;2023-07-09T10:35:29;95723.69;;;30.07;35.74
23172;BME280;11754;42.664;23.594;2023-07-09T10:40:53;95729.91;;;30.47;32.77
23172;BME280;11754;42.664;23.594;2023-07-09T10:43:25;95731.25;;;30.20;34.15
23172;BME280;11754;42.664;23.594;2023-07-09T10:45:58;95720.69;;;30.72;35.40
23172;BME280;11754;42.664;23.594;2023-07-09T10:48:47;95707.41;;;31.18;34.09
23172;BME280;11754;42.664;23.594;2023-07-09T11:01:32;95710.28;;;31.51;32.44
23172;BME280;11754;42.664;23.594;2023-07-09T11:04:02;95714.06;;;31.93;32.76
23172;BME280;11754;42.664;23.594;2023-07-09T11:06:45;95713.78;;;32.46;31.68
23172;BME280;11754;42.664;23.594;2023-07-09T11:11:53;95696.78;;;32.49;30.82
23172;BME280;11754;42.664;23.594;2023-07-09T11:14:41;95717.28;;;31.76;31.44
23172;BME280;11754;42.664;23.594;2023-07-09T11:17:15;95700.94;;;32.27;31.90
23172;BME280;11754;42.664;23.594;2023-07-09T11:19:43;95714.59;;;32.60;29.41
23172;BME280;11754;42.664;23.594;2023-07-09T11:22:21;95703.84;;;32.83;29.65
23172;BME280;11754;42.664;23.594;2023-07-09T11:27:25;95720.63;;;33.45;28.15
23172;BME280;11754;42.664;23.594;2023-07-09T11:30:00;95701.69;;;33.62;28.59
23172;BME280;11754;42.664;23.594;2023-07-09T11:32:27;95717.19;;;34.03;27.77
23172;BME280;11754;42.664;23.594;2023-07-09T11:41:51;95699.38;;;34.37;28.83
23172;BME280;11754;42.664;23.594;2023-07-09T11:44:21;95696.38;;;35.01;27.65
23172;BME280;11754;42.664;23.594;2023-07-09T11:47:01;95695.06;;;35.38;26.79
23172;BME280;11754;42.664;23.594;2023-07-09T11:49:43;95696.56;;;35.70;25.81
23172;BME280;11754;42.664;23.594;2023-07-09T11:55:40;95683.59;;;35.27;25.70
23172;BME280;11754;42.664;23.594;2023-07-09T11:58:09;95683.06;;;35.17;27.15
23172;BME280;11754;42.664;23.594;2023-07-09T12:00:44;95681.91;;;35.75;25.42
23172;BME280;11754;42.664;23.594;2023-07-09T12:03:15;95672.63;;;35.45;25.71
23172;BME280;11754;42.664;23.594;2023-07-09T12:05:51;95697.03;;;34.66;26.92
23172;BME280;11754;42.664;23.594;2023-07-09T12:08:21;95684.16;;;34.44;27.51
23172;BME280;11754;42.664;23.594;2023-07-09T12:10:49;95669.91;;;34.96;27.45
23172;BME280;11754;42.664;23.594;2023-07-09T12:13:14;95649.22;;;35.30;26.68
23172;BME280;11754;42.664;23.594;2023-07-09T12:15:40;95685.59;;;35.88;25.10
23172;BME280;11754;42.664;23.594;2023-07-09T12:18:13;95670.84;;;35.40;25.80
23172;BME280;11754;42.664;23.594;2023-07-09T12:20:40;95671.78;;;34.25;26.76
23172;BME280;11754;42.664;23.594;2023-07-09T12:25:48;95674.63;;;34.42;27.56
23172;BME280;11754;42.664;23.594;2023-07-09T12:28:14;95670.78;;;33.98;27.26
23172;BME280;11754;42.664;23.594;2023-07-09T12:34:02;95670.84;;;32.65;29.37
23172;BME280;11754;42.664;23.594;2023-07-09T12:36:28;95657.69;;;32.81;29.86
23172;BME280;11754;42.664;23.594;2023-07-09T12:39:00;95648.94;;;32.05;30.09
23172;BME280;11754;42.664;23.594;2023-07-09T12:41:44;95649.78;;;32.19;30.21
23172;BME280;11754;42.664;23.594;2023-07-09T12:54:19;95646.06;;;33.67;28.94
23172;BME280;11754;42.664;23.594;2023-07-09T12:56:46;95634.59;;;33.29;29.88
23172;BME280;11754;42.664;23.594;2023-07-09T12:59:38;95641.41;;;33.17;29.68
23172;BME280;11754;42.664;23.594;2023-07-09T13:02:26;95641.41;;;33.17;28.45
23172;BME280;11754;42.664;23.594;2023-07-09T13:18:46;95641.56;;;31.11;31.71
23172;BME280;11754;42.664;23.594;2023-07-09T13:21:17;95640.31;;;30.79;33.00
23172;BME280;11754;42.664;23.594;2023-07-09T13:23:43;95620.97;;;30.81;33.54
23172;BME280;11754;42.664;23.594;2023-07-09T13:26:08;95638.97;;;31.01;33.08
23172;BME280;11754;42.664;23.594;2023-07-09T13:28:33;95644.28;;;31.30;32.95
23172;BME280;11754;42.664;23.594;2023-07-09T13:31:07;95632.94;;;31.47;31.97
23172;BME280;11754;42.664;23.594;2023-07-09T13:33:33;95630.00;;;31.00;33.05
23172;BME280;11754;42.664;23.594;2023-07-09T13:35:59;95650.28;;;31.13;32.34
23172;BME280;11754;42.664;23.594;2023-07-09T13:38:26;95638.03;;;31.10;32.96
23172;BME280;11754;42.664;23.594;2023-07-09T13:40:59;95642.00;;;31.18;32.76
23172;BME280;11754;42.664;23.594;2023-07-09T13:43:30;95622.25;;;30.88;32.83
23172;BME280;11754;42.664;23.594;2023-07-09T13:45:57;95642.41;;;30.87;33.76
23172;BME280;11754;42.664;23.594;2023-07-09T13:48:23;95638.34;;;31.09;33.81
23172;BME280;11754;42.664;23.594;2023-07-09T13:50:51;95634.41;;;30.96;32.64
23172;BME280;11754;42.664;23.594;2023-07-09T13:53:23;95642.53;;;30.77;32.92
23172;BME280;11754;42.664;23.594;2023-07-09T13:55:49;95653.88;;;30.84;33.93
23172;BME280;11754;42.664;23.594;2023-07-09T13:58:17;95625.56;;;31.04;33.62
23172;BME280;11754;42.664;23.594;2023-07-09T14:00:44;95655.03;;;31.45;32.72
23172;BME280;11754;42.664;23.594;2023-07-09T14:03:28;95646.88;;;31.21;33.05
23172;BME280;11754;42.664;23.594;2023-07-09T14:05:54;95628.16;;;30.96;33.52
23172;BME280;11754;42.664;23.594;2023-07-09T14:08:20;95647.91;;;31.06;33.40
23172;BME280;11754;42.664;23.594;2023-07-09T14:27:35;95635.22;;;30.49;34.17
23172;BME280;11754;42.664;23.594;2023-07-09T14:30:00;95644.16;;;30.78;33.22
23172;BME280;11754;42.664;23.594;2023-07-09T14:32:30;95651.31;;;30.93;33.84
23172;BME280;11754;42.664;23.594;2023-07-09T14:34:56;95639.16;;;30.85;33.67
23172;BME280;11754;42.664;23.594;2023-07-09T14:37:21;95648.97;;;30.57;34.50
23172;BME280;11754;42.664;23.594;2023-07-09T14:39:47;95629.38;;;30.31;34.00
23172;BME280;11754;42.664;23.594;2023-07-09T14:48:55;95642.81;;;29.88;34.70
23172;BME280;11754;42.664;23.594;2023-07-09T14:51:20;95643.44;;;29.75;34.91
23172;BME280;11754;42.664;23.594;2023-07-09T14:53:46;95640.88;;;29.94;35.56